Time;durP1;ratioP1;P1;durP2;ratioP2;P2;SDS_P1;SDS_P2;PMS_P1;PMS_P2;Temp;Humidity;BMP_temperature;BMP_pressure;BME280_temperature;BME280_humidity;BME280_pressure;Samples;Min_cycle;Max_cycle;Signal;HPM_P1;HPM_P2
2022/07/12 00:01:40;;;;;;;;;4.00;3.25;;;;;25.67;41.61;101734.69;4917013;28;45165;-44
2022/07/12 00:04:05;;;;;;;;;3.50;3.00;;;;;25.67;42.07;101737.34;4918801;28;45177;-44
2022/07/12 00:06:31;;;;;;;;;1.25;1.25;;;;;25.67;42.11;101737.34;4918563;28;46457;-43
2022/07/12 00:08:56;;;;;;;;;3.00;2.75;;;;;25.66;42.45;101730.31;4918292;28;45341;-45
2022/07/12 00:11:21;;;;;;;;;4.75;3.00;;;;;25.66;41.53;101727.66;4901758;28;45260;-43
2022/07/12 00:13:47;;;;;;;;;6.75;3.00;;;;;25.65;41.64;101721.50;4918851;28;45606;-46
2022/07/12 00:16:12;;;;;;;;;2.00;2.00;;;;;25.65;41.68;101728.59;4918184;28;46569;-47
2022/07/12 00:18:37;;;;;;;;;3.00;3.00;;;;;25.65;42.24;101724.16;4918486;28;45419;-43
2022/07/12 00:21:03;;;;;;;;;3.00;3.00;;;;;25.64;41.82;101725.13;4918267;28;45399;-49
2022/07/12 00:23:28;;;;;;;;;3.00;3.00;;;;;25.63;42.13;101718.94;4918335;28;45630;-43
2022/07/12 00:25:54;;;;;;;;;5.00;3.00;;;;;25.62;42.55;101722.56;4918108;28;46021;-46
2022/07/12 00:28:19;;;;;;;;;2.00;2.00;;;;;25.62;41.81;101721.69;4918418;28;45326;-44
2022/07/12 00:30:44;;;;;;;;;2.00;2.00;;;;;25.60;41.93;101729.78;4918428;28;45399;-46
2022/07/12 00:33:10;;;;;;;;;4.25;3.00;;;;;25.61;42.53;101736.78;4918181;28;45456;-42
2022/07/12 00:35:35;;;;;;;;;4.00;4.00;;;;;25.61;42.25;101726.16;4918303;28;45447;-44
2022/07/12 00:38:00;;;;;;;;;2.75;2.75;;;;;25.60;42.23;101719.16;4918046;28;45308;-42
2022/07/12 00:40:25;;;;;;;;;3.00;3.00;;;;;25.60;42.38;101723.59;4917935;28;52190;-48
2022/07/12 00:42:51;;;;;;;;;2.75;2.75;;;;;25.60;42.44;101724.47;4918774;28;45648;-49
2022/07/12 00:45:16;;;;;;;;;2.50;2.00;;;;;25.60;42.35;101712.97;4917906;28;46112;-46
2022/07/12 00:47:44;;;;;;;;;3.00;3.00;;;;;25.58;42.53;101713.09;4918047;28;45295;-43
2022/07/12 00:50:15;;;;;;;;;3.00;3.00;;;;;25.58;42.41;101714.88;4917934;28;45233;-45
2022/07/12 00:52:43;;;;;;;;;2.00;2.00;;;;;25.57;42.27;101714.03;4918374;28;45346;-46
2022/07/12 00:55:10;;;;;;;;;4.00;3.00;;;;;25.58;42.38;101706.91;4917661;28;46082;-45
2022/07/12 00:57:36;;;;;;;;;2.75;2.75;;;;;25.57;42.35;101707.88;4918171;28;45735;-45
2022/07/12 01:00:04;;;;;;;;;2.75;2.75;;;;;25.56;42.17;101707.00;4917817;28;45340;-45
2022/07/12 01:02:30;;;;;;;;;3.00;3.00;;;;;25.56;42.69;101707.00;4918212;28;45511;-46
2022/07/12 01:04:57;;;;;;;;;3.00;3.00;;;;;25.56;42.51;101703.53;4917622;28;45446;-45
2022/07/12 01:07:24;;;;;;;;;4.00;3.00;;;;;25.55;42.43;101704.47;4918089;28;45342;-46
2022/07/12 01:09:50;;;;;;;;;3.00;3.00;;;;;25.56;42.96;101703.53;4918278;28;45427;-44
2022/07/12 01:12:16;;;;;;;;;3.00;3.00;;;;;25.55;42.57;101709.78;4918393;28;45211;-45
2022/07/12 01:14:42;;;;;;;;;2.00;2.00;;;;;25.53;42.63;101712.50;4921035;28;46020;-42
2022/07/12 01:17:08;;;;;;;;;5.00;3.50;;;;;25.54;42.55;101708.91;4920921;28;45495;-45
2022/07/12 01:19:37;;;;;;;;;5.25;4.00;;;;;25.52;42.37;101710.78;4921294;28;45335;-47
2022/07/12 01:22:08;;;;;;;;;5.00;4.00;;;;;25.52;43.03;101709.97;4921100;28;45325;-42
2022/07/12 01:24:33;;;;;;;;;3.50;3.00;;;;;25.50;42.47;101715.38;4904392;28;45490;-44
2022/07/12 01:26:59;;;;;;;;;2.00;2.00;;;;;25.50;42.72;101718.03;4920708;28;45316;-43
2022/07/12 01:29:26;;;;;;;;;4.00;4.00;;;;;25.50;42.47;101707.41;4920779;28;45415;-46
2022/07/12 01:31:51;;;;;;;;;4.00;4.00;;;;;25.50;42.56;101707.41;4921557;28;45375;-47
2022/07/12 01:34:17;;;;;;;;;4.50;3.75;;;;;25.50;42.51;101704.75;4920519;28;45348;-42
2022/07/12 01:36:43;;;;;;;;;3.75;3.75;;;;;25.51;42.76;101697.63;4920889;28;45295;-51
2022/07/12 01:39:09;;;;;;;;;3.75;3.75;;;;;25.51;43.26;101698.50;4920752;28;45379;-46
2022/07/12 01:41:35;;;;;;;;;2.50;2.50;;;;;25.50;42.51;101695.94;4921158;28;45535;-43
2022/07/12 01:44:01;;;;;;;;;3.00;3.00;;;;;25.48;42.63;101693.38;4920384;28;46286;-43
2022/07/12 01:46:26;;;;;;;;;3.25;3.25;;;;;25.48;43.20;101693.38;4920631;28;45937;-42
2022/07/12 01:48:51;;;;;;;;;5.50;3.25;;;;;25.48;42.58;101693.38;4920769;28;47985;-42
2022/07/12 01:51:17;;;;;;;;;3.25;3.00;;;;;25.47;43.14;101694.31;4920242;28;46118;-45
2022/07/12 01:53:42;;;;;;;;;3.25;3.00;;;;;25.47;42.59;101702.28;4920557;28;46051;-42
2022/07/12 01:56:08;;;;;;;;;3.50;3.50;;;;;25.47;42.70;101700.47;4920355;28;45349;-43
2022/07/12 01:58:34;;;;;;;;;3.00;3.00;;;;;25.46;43.21;101706.75;4920646;28;45483;-47
2022/07/12 02:01:00;;;;;;;;;3.00;3.00;;;;;25.46;42.71;101704.09;4920510;28;45531;-42
2022/07/12 02:03:25;;;;;;;;;4.00;4.00;;;;;25.46;43.16;101705.88;4920355;28;46220;-43
2022/07/12 02:05:50;;;;;;;;;3.00;3.00;;;;;25.46;43.40;101703.25;4920499;28;45309;-44
2022/07/12 02:08:16;;;;;;;;;4.00;4.00;;;;;25.44;42.86;101699.81;4919981;28;47764;-43
2022/07/12 02:10:42;;;;;;;;;2.50;2.50;;;;;25.43;43.23;101693.69;4920643;28;45477;-45
2022/07/12 02:13:07;;;;;;;;;4.25;4.25;;;;;25.44;42.99;101702.47;4919927;28;45250;-43
2022/07/12 02:15:33;;;;;;;;;3.25;3.25;;;;;25.42;43.38;101697.28;4920180;28;45238;-42
2022/07/12 02:17:58;;;;;;;;;3.25;3.25;;;;;25.42;43.23;101701.72;4920086;28;45538;-43
2022/07/12 02:20:24;;;;;;;;;4.00;4.00;;;;;25.42;43.11;101707.03;4920320;28;45366;-47
2022/07/12 02:22:49;;;;;;;;;4.00;4.00;;;;;25.41;43.06;101697.38;4920019;28;55401;-44
2022/07/12 02:25:15;;;;;;;;;5.75;4.25;;;;;25.41;43.16;101703.53;4918715;28;45322;-41
2022/07/12 02:27:42;;;;;;;;;4.25;4.00;;;;;25.40;43.20;101708.91;4920105;28;45438;-43
2022/07/12 02:30:09;;;;;;;;;4.00;4.00;;;;;25.40;43.33;101700.94;4920122;28;45307;-43
2022/07/12 02:32:35;;;;;;;;;3.25;3.25;;;;;25.38;43.32;101698.38;4920038;28;46232;-43
2022/07/12 02:35:00;;;;;;;;;5.00;4.00;;;;;25.40;43.08;101700.94;4919669;28;45544;-42
2022/07/12 02:37:25;;;;;;;;;3.00;3.00;;;;;25.40;43.57;101706.25;4920077;28;45373;-45
2022/07/12 02:39:51;;;;;;;;;4.00;4.00;;;;;25.41;43.02;101700.03;4903423;28;45426;-43
2022/07/12 02:42:16;;;;;;;;;4.00;3.00;;;;;25.41;43.11;101703.53;4919564;28;45338;-46
2022/07/12 02:44:42;;;;;;;;;3.00;3.00;;;;;25.41;43.43;101695.56;4919767;28;45311;-42
2022/07/12 02:47:07;;;;;;;;;4.00;4.00;;;;;25.41;43.48;101698.22;4919388;28;46520;-44
2022/07/12 02:49:33;;;;;;;;;5.00;3.00;;;;;25.42;42.92;101701.72;4919969;28;45292;-46
2022/07/12 02:51:58;;;;;;;;;4.00;4.00;;;;;25.42;42.92;101705.25;4919454;28;45693;-44
2022/07/12 02:54:24;;;;;;;;;6.00;4.00;;;;;25.42;42.99;101713.19;4919825;28;45762;-45
2022/07/12 02:56:49;;;;;;;;;3.75;2.00;;;;;25.40;43.63;101715.09;4920176;28;45401;-44
2022/07/12 02:59:15;;;;;;;;;5.00;4.00;;;;;25.41;43.13;101713.31;4919635;28;45551;-46
2022/07/12 03:01:40;;;;;;;;;5.00;4.25;;;;;25.40;43.04;101712.44;4919491;28;46122;-43
2022/07/12 03:04:05;;;;;;;;;4.50;4.25;;;;;25.40;43.63;101704.47;4919294;28;45383;-47
2022/07/12 03:06:31;;;;;;;;;4.50;3.00;;;;;25.42;43.01;101712.31;4919537;28;45317;-47
2022/07/12 03:08:56;;;;;;;;;5.50;4.00;;;;;25.42;43.17;101718.50;4902437;28;45394;-48
2022/07/12 03:11:22;;;;;;;;;3.00;3.00;;;;;25.43;42.69;101711.38;4919711;28;46220;-49
2022/07/12 03:13:47;;;;;;;;;4.00;3.00;;;;;25.42;43.31;101712.31;4919479;28;45450;-48
2022/07/12 03:16:13;;;;;;;;;3.00;3.00;;;;;25.44;43.34;101713.09;4919044;28;45482;-48
2022/07/12 03:18:40;;;;;;;;;4.25;4.00;;;;;25.45;43.44;101725.41;4919299;28;45315;-44
2022/07/12 03:21:05;;;;;;;;;3.00;3.00;;;;;25.45;43.37;101712.16;4918895;28;47048;-46
2022/07/12 03:23:31;;;;;;;;;3.75;3.00;;;;;25.45;43.24;101709.50;4919312;28;45408;-52
2022/07/12 03:25:56;;;;;;;;;4.00;4.00;;;;;25.43;42.97;101717.56;4919118;28;45390;-43
2022/07/12 03:28:21;;;;;;;;;2.25;2.25;;;;;25.45;43.37;101709.50;4919720;28;45371;-48
2022/07/12 03:30:47;;;;;;;;;4.75;4.50;;;;;25.45;43.46;101714.81;4919084;28;47033;-44
2022/07/12 03:33:12;;;;;;;;;4.00;4.00;;;;;25.45;43.15;101714.81;4918936;28;45241;-48
2022/07/12 03:35:38;;;;;;;;;4.25;4.25;;;;;25.44;42.83;101713.97;4918940;28;45452;-44
2022/07/12 03:38:03;;;;;;;;;4.00;4.00;;;;;25.44;42.85;101713.09;4919370;28;45308;-45
2022/07/12 03:40:32;;;;;;;;;4.00;4.00;;;;;25.43;43.01;101717.56;4918918;28;46052;-44
2022/07/12 03:42:58;;;;;;;;;4.00;4.00;;;;;25.45;43.48;101725.41;4918858;28;45859;-41
2022/07/12 03:45:23;;;;;;;;;6.00;4.75;;;;;25.44;42.86;101716.63;4919063;28;45397;-41
2022/07/12 03:47:49;;;;;;;;;6.50;5.25;;;;;25.44;43.03;101721.06;4919511;28;45637;-44
2022/07/12 03:50:14;;;;;;;;;4.25;4.25;;;;;25.45;42.98;101720.09;4918477;28;46428;-45
2022/07/12 03:52:41;;;;;;;;;5.75;5.00;;;;;25.45;42.83;101722.75;4901850;28;45426;-45
2022/07/12 03:55:08;;;;;;;;;4.00;4.00;;;;;25.46;43.48;101724.47;4918782;28;45377;-44
2022/07/12 03:57:34;;;;;;;;;4.00;4.00;;;;;25.45;42.74;101725.41;4919221;28;45380;-47
2022/07/12 03:59:59;;;;;;;;;4.25;4.00;;;;;25.46;42.78;101727.13;4918414;28;46128;-43
2022/07/12 04:02:24;;;;;;;;;4.50;4.00;;;;;25.46;43.21;101732.44;4918745;28;45332;-42
2022/07/12 04:04:50;;;;;;;;;5.00;5.00;;;;;25.45;43.33;101734.25;4918896;28;45240;-42
2022/07/12 04:07:16;;;;;;;;;7.00;3.00;;;;;25.46;42.81;101737.75;4918648;28;45415;-41
2022/07/12 04:09:42;;;;;;;;;3.00;3.00;;;;;25.46;43.03;101737.75;4918512;28;45232;-44
2022/07/12 04:12:07;;;;;;;;;3.25;3.25;;;;;25.45;43.05;101736.03;4918325;28;45474;-43
2022/07/12 04:14:33;;;;;;;;;4.25;4.25;;;;;25.46;42.99;101740.41;4918632;28;45344;-45
2022/07/12 04:16:58;;;;;;;;;5.00;3.50;;;;;25.45;43.23;101741.34;4918682;28;45593;-43
2022/07/12 04:19:27;;;;;;;;;4.00;4.00;;;;;25.45;43.12;101752.81;4918245;28;46158;-44
2022/07/12 04:21:53;;;;;;;;;5.50;3.25;;;;;25.46;43.55;101748.34;4901557;28;45241;-42
2022/07/12 04:24:18;;;;;;;;;4.00;4.00;;;;;25.46;43.16;101748.34;4918670;28;45883;-44
2022/07/12 04:26:43;;;;;;;;;5.00;4.00;;;;;25.43;42.76;101748.53;4918488;28;45288;-42
2022/07/12 04:29:09;;;;;;;;;5.00;4.00;;;;;25.44;43.22;101756.41;4917953;28;46185;-43
2022/07/12 04:31:34;;;;;;;;;4.00;4.00;;;;;25.41;43.38;101750.47;4918345;28;45502;-44
2022/07/12 04:34:00;;;;;;;;;6.25;6.25;;;;;25.38;42.96;101748.78;4917552;28;60405;-44
2022/07/12 04:36:25;;;;;;;;;4.50;4.50;;;;;25.37;43.20;101755.03;4918719;28;45367;-45
2022/07/12 04:38:50;;;;;;;;;6.00;3.00;;;;;25.37;43.45;101748.91;4918471;28;46072;-47
2022/07/12 04:41:16;;;;;;;;;4.00;4.00;;;;;25.37;42.96;101749.75;4917399;28;62492;-41
2022/07/12 04:43:41;;;;;;;;;5.00;5.00;;;;;25.37;42.97;101755.03;4918328;28;45220;-42
2022/07/12 04:46:08;;;;;;;;;6.00;4.75;;;;;25.37;43.13;101744.44;4917793;28;45426;-41
2022/07/12 04:48:33;;;;;;;;;4.00;4.00;;;;;25.37;43.42;101754.19;4920314;28;46137;-44
2022/07/12 04:50:58;;;;;;;;;6.25;5.00;;;;;25.35;43.10;101753.44;4921403;28;45308;-45
2022/07/12 04:53:24;;;;;;;;;5.25;4.00;;;;;25.32;43.34;101747.38;4921596;28;45456;-41
2022/07/12 04:55:49;;;;;;;;;4.00;4.00;;;;;25.34;43.08;101757.03;4904530;28;48563;-42
2022/07/12 04:58:14;;;;;;;;;4.75;4.75;;;;;25.31;43.79;101755.44;4921117;28;46821;-44
2022/07/12 05:00:40;;;;;;;;;4.00;4.00;;;;;25.31;43.58;101758.09;4921459;28;45289;-47
2022/07/12 05:03:05;;;;;;;;;5.25;4.25;;;;;25.29;43.10;101758.19;4921163;28;45321;-46
2022/07/12 05:05:30;;;;;;;;;4.00;4.00;;;;;25.29;43.26;101763.50;4921525;28;45483;-44
2022/07/12 05:07:56;;;;;;;;;5.75;4.50;;;;;25.30;43.73;101761.69;4920819;28;46187;-43
2022/07/12 05:10:21;;;;;;;;;5.75;4.50;;;;;25.28;43.34;101758.28;4921464;28;45445;-42
2022/07/12 05:12:46;;;;;;;;;5.50;4.75;;;;;25.29;43.61;101763.50;4921396;28;45200;-43
2022/07/12 05:15:12;;;;;;;;;5.00;5.00;;;;;25.28;43.88;101772.41;4921166;28;45301;-46
2022/07/12 05:17:37;;;;;;;;;4.00;4.00;;;;;25.27;43.45;101781.31;4921004;28;45217;-44
2022/07/12 05:20:03;;;;;;;;;4.75;4.75;;;;;25.27;43.91;101781.31;4903868;28;45316;-51
2022/07/12 05:22:28;;;;;;;;;5.00;3.50;;;;;25.27;43.60;101788.41;4921472;28;45246;-45
2022/07/12 05:24:54;;;;;;;;;4.00;3.75;;;;;25.26;43.60;101784.03;4921296;28;45617;-45
2022/07/12 05:27:19;;;;;;;;;5.00;5.00;;;;;25.27;43.28;101785.75;4920969;28;46963;-46
2022/07/12 05:29:44;;;;;;;;;7.00;6.50;;;;;25.27;43.72;101785.75;4920839;28;45421;-44
2022/07/12 05:32:10;;;;;;;;;8.50;7.00;;;;;25.26;43.28;101784.03;4920532;28;46505;-53
2022/07/12 05:34:39;;;;;;;;;7.00;6.50;;;;;25.24;43.89;101792.09;4920891;28;45297;-49
2022/07/12 05:37:05;;;;;;;;;5.00;5.00;;;;;25.22;43.53;101794.00;4920593;28;45372;-48
2022/07/12 05:39:30;;;;;;;;;5.75;5.00;;;;;25.21;43.76;101792.28;4903795;28;45347;-48
2022/07/12 05:41:55;;;;;;;;;6.00;6.00;;;;;25.21;43.86;101805.53;4920387;28;45845;-47
2022/07/12 05:44:22;;;;;;;;;7.00;5.50;;;;;25.21;43.22;101802.06;4921244;28;45568;-47
2022/07/12 05:46:48;;;;;;;;;7.00;5.00;;;;;25.19;43.75;101795.97;4920428;28;47325;-41
2022/07/12 05:49:13;;;;;;;;;5.00;5.00;;;;;25.18;43.30;101803.09;4920613;28;45793;-47
2022/07/12 05:54:22;;;;;;;;;8.00;6.00;;;;;25.16;43.51;101804.97;4921168;28;45386;-46
2022/07/12 05:56:48;;;;;;;;;9.00;7.00;;;;;25.13;43.72;101806.03;4920454;28;45985;-44
2022/07/12 05:59:13;;;;;;;;;8.75;7.00;;;;;25.12;43.98;101803.44;4918946;28;45744;-46
2022/07/12 06:01:39;;;;;;;;;6.00;6.00;;;;;25.12;43.96;101806.97;4920222;28;48230;-44
2022/07/12 06:04:04;;;;;;;;;6.50;5.25;;;;;25.13;43.16;101813.13;4920409;28;45402;-48
2022/07/12 06:06:29;;;;;;;;;11.50;6.50;;;;;25.14;43.39;101817.47;4920113;28;46116;-42
2022/07/12 06:08:55;;;;;;;;;6.75;5.00;;;;;25.15;44.08;101817.38;4919630;28;60013;-45
2022/07/12 06:11:20;;;;;;;;;6.00;6.00;;;;;25.14;43.54;101818.31;4920716;28;45383;-44
2022/07/12 06:13:45;;;;;;;;;6.25;6.25;;;;;25.16;43.49;101823.56;4920559;28;45558;-43
2022/07/12 06:16:11;;;;;;;;;6.50;6.50;;;;;25.16;43.44;101815.59;4919930;28;46581;-44
2022/07/12 06:18:37;;;;;;;;;7.00;6.00;;;;;25.19;43.91;101831.31;4920189;28;45245;-42
2022/07/12 06:21:02;;;;;;;;;6.00;6.00;;;;;25.19;43.69;101825.16;4920129;28;45352;-42
2022/07/12 06:23:28;;;;;;;;;6.75;6.75;;;;;25.22;43.26;101828.47;4920475;28;45319;-45
2022/07/12 06:25:53;;;;;;;;;6.75;6.75;;;;;25.19;43.47;101826.00;4903141;28;47186;-43
2022/07/12 06:28:19;;;;;;;;;5.00;5.00;;;;;25.22;43.39;101825.81;4920148;28;45353;-41
2022/07/12 06:30:44;;;;;;;;;5.00;5.00;;;;;25.22;43.84;101823.16;4920162;28;45331;-48
2022/07/12 06:33:09;;;;;;;;;5.25;5.25;;;;;25.21;43.84;101824.09;4920058;28;45336;-44
2022/07/12 06:35:35;;;;;;;;;6.00;6.00;;;;;25.24;43.96;101829.25;4919993;28;45462;-47
2022/07/12 06:38:01;;;;;;;;;7.00;6.50;;;;;25.26;43.75;101829.13;4919647;28;45382;-43
2022/07/12 06:40:26;;;;;;;;;5.75;5.25;;;;;25.26;44.20;101827.34;4920101;28;45347;-43
2022/07/12 06:42:51;;;;;;;;;6.75;5.75;;;;;25.28;43.23;101836.09;4920488;28;45452;-45
2022/07/12 06:45:17;;;;;;;;;7.50;7.00;;;;;25.28;43.50;101822.81;4919148;28;57957;-45
2022/07/12 06:47:43;;;;;;;;;7.25;7.25;;;;;25.29;43.74;101832.50;4919806;28;45320;-48
2022/07/12 06:50:08;;;;;;;;;7.00;7.00;;;;;25.29;43.18;101835.13;4919724;28;46233;-42
2022/07/12 06:52:35;;;;;;;;;8.25;7.00;;;;;25.29;43.34;101831.63;4919942;28;45322;-41
2022/07/12 06:55:00;;;;;;;;;8.00;8.00;;;;;25.30;43.33;101833.31;4919398;28;46268;-42
2022/07/12 06:57:33;;;;;;;;;7.00;7.00;;;;;25.29;43.90;101837.78;4919644;28;45337;-44
2022/07/12 06:59:59;;;;;;;;;9.00;8.00;;;;;25.29;43.44;101837.78;4919414;28;45867;-44
2022/07/12 07:02:24;;;;;;;;;10.00;7.00;;;;;25.31;43.85;101835.88;4919866;28;45515;-42
2022/07/12 07:04:49;;;;;;;;;7.25;7.00;;;;;25.30;43.68;101839.47;4919719;28;45300;-42
2022/07/12 07:07:15;;;;;;;;;7.75;7.75;;;;;25.32;43.49;101840.25;4919224;28;45304;-42
2022/07/12 07:09:41;;;;;;;;;8.25;6.50;;;;;25.35;43.64;101833.03;4919481;28;45565;-42
2022/07/12 07:12:07;;;;;;;;;7.25;6.00;;;;;25.36;43.72;101835.59;4919095;28;45569;-42
2022/07/12 07:14:33;;;;;;;;;8.00;7.00;;;;;25.38;43.79;101832.88;4919324;28;46183;-42
2022/07/12 07:16:58;;;;;;;;;10.25;8.00;;;;;25.39;44.19;101834.59;4917940;28;45359;-46
2022/07/12 07:19:25;;;;;;;;;7.25;7.25;;;;;25.41;43.61;101835.38;4919430;28;47478;-46
2022/07/12 07:21:51;;;;;;;;;8.00;8.00;;;;;25.42;43.83;101839.72;4919959;28;45484;-48
2022/07/12 07:24:16;;;;;;;;;8.50;8.00;;;;;25.43;43.61;101839.63;4918915;28;46945;-45
2022/07/12 07:26:42;;;;;;;;;7.75;7.75;;;;;25.45;43.87;101839.53;4902067;28;45258;-41
2022/07/12 07:31:51;;;;;;;;;8.00;8.00;;;;;25.46;43.27;101839.47;4919787;28;45435;-46
2022/07/12 07:34:16;;;;;;;;;9.75;8.25;;;;;25.50;43.77;101839.25;4918819;28;45984;-48
2022/07/12 07:36:42;;;;;;;;;8.75;8.50;;;;;25.52;43.39;101840.84;4918944;28;45296;-44
2022/07/12 07:39:07;;;;;;;;;8.50;7.25;;;;;25.55;43.51;101845.16;4918969;28;45356;-48
2022/07/12 07:41:33;;;;;;;;;8.75;6.75;;;;;25.56;43.64;101847.69;4919322;28;45227;-48
2022/07/12 07:43:58;;;;;;;;;8.00;8.00;;;;;25.58;43.30;101844.94;4918658;28;45937;-49
2022/07/12 07:46:23;;;;;;;;;11.00;7.75;;;;;25.61;43.26;101842.09;4901703;28;50427;-47
2022/07/12 07:48:49;;;;;;;;;8.25;6.75;;;;;25.62;42.94;101847.34;4919288;28;45712;-46
2022/07/12 07:51:14;;;;;;;;;8.50;7.00;;;;;25.63;43.51;101845.53;4918792;28;45610;-48
2022/07/12 07:53:39;;;;;;;;;8.75;8.50;;;;;25.66;43.44;101849.78;4918770;28;46180;-45
2022/07/12 07:56:05;;;;;;;;;7.50;7.25;;;;;25.67;42.96;101851.50;4918508;28;45310;-48
2022/07/12 07:58:30;;;;;;;;;10.00;7.00;;;;;25.69;43.42;101852.25;4919003;28;45399;-53
2022/07/12 08:00:55;;;;;;;;;8.25;8.25;;;;;25.69;43.47;101854.91;4918870;28;45489;-44
2022/07/12 08:03:22;;;;;;;;;9.00;8.50;;;;;25.71;43.36;101858.34;4918920;28;46266;-43
2022/07/12 08:05:48;;;;;;;;;8.00;8.00;;;;;25.72;43.10;101860.03;4918545;28;45364;-48
2022/07/12 08:08:13;;;;;;;;;9.25;6.25;;;;;25.73;42.81;101856.44;4918427;28;45459;-44
2022/07/12 08:10:39;;;;;;;;;5.50;5.50;;;;;25.73;43.17;101856.44;4918822;28;45349;-43
2022/07/12 08:13:04;;;;;;;;;7.25;6.25;;;;;25.72;43.27;101844.13;4918202;28;45301;-42
2022/07/12 08:15:30;;;;;;;;;10.00;8.00;;;;;25.73;42.56;101848.47;4918519;28;45441;-43
2022/07/12 08:17:56;;;;;;;;;10.00;10.00;;;;;25.73;43.25;101857.28;4918326;28;45400;-42
2022/07/12 08:20:22;;;;;;;;;6.50;6.50;;;;;25.75;42.83;101849.22;4919181;28;45418;-43
2022/07/12 08:22:48;;;;;;;;;9.25;6.50;;;;;25.75;43.13;101855.38;4917416;28;46271;-43
2022/07/12 08:25:13;;;;;;;;;8.50;8.50;;;;;25.76;43.29;101853.56;4918097;28;45328;-52
2022/07/12 08:27:39;;;;;;;;;8.00;8.00;;;;;25.77;42.69;101855.28;4918369;28;45409;-49
2022/07/12 08:30:05;;;;;;;;;8.50;8.50;;;;;25.75;43.06;101850.09;4918446;28;45237;-45
2022/07/12 08:32:31;;;;;;;;;8.50;7.00;;;;;25.77;43.01;101863.25;4918181;28;46186;-53
2022/07/12 08:34:56;;;;;;;;;8.00;7.75;;;;;25.77;43.03;101860.59;4901117;28;45315;-53
2022/07/12 08:37:22;;;;;;;;;9.25;6.00;;;;;25.78;42.98;101855.22;4918708;28;45226;-58
2022/07/12 08:39:47;;;;;;;;;8.25;8.25;;;;;25.78;42.93;101849.03;4918539;28;45636;-52
2022/07/12 08:42:17;;;;;;;;;9.00;7.00;;;;;25.81;43.20;101850.63;4917755;28;46245;-50
2022/07/12 08:44:54;;;;;;;;;7.50;7.50;;;;;25.81;42.90;101847.97;4918103;28;45715;-47
2022/07/12 08:47:20;;;;;;;;;9.00;7.00;;;;;25.81;42.96;101845.31;4918477;28;45336;-47
2022/07/12 08:50:17;;;;;;;;;8.00;8.00;;;;;25.82;42.72;101847.91;4918098;28;45214;-52
2022/07/12 08:52:45;;;;;;;;;10.50;6.50;;;;;25.82;43.21;101850.56;4917517;28;46360;-49
2022/07/12 08:55:24;;;;;;;;;6.00;5.00;;;;;25.83;42.87;101857.59;4917797;28;45783;-45
2022/07/12 08:57:51;;;;;;;;;8.00;7.00;;;;;25.83;42.62;101854.91;4918641;28;45368;-46
2022/07/12 09:00:17;;;;;;;;;8.00;6.25;;;;;25.84;42.53;101856.63;4918098;28;45613;-44
2022/07/12 09:02:46;;;;;;;;;8.25;7.25;;;;;25.85;42.48;101855.66;4917829;28;45369;-46
2022/07/12 09:05:12;;;;;;;;;8.50;8.50;;;;;25.86;42.73;101853.88;4917573;28;45758;-45
2022/07/12 09:07:37;;;;;;;;;6.50;6.00;;;;;25.87;42.68;101853.75;4918007;28;45312;-47
2022/07/12 09:10:10;;;;;;;;;8.00;7.25;;;;;25.89;42.70;101861.66;4917868;28;45313;-52
2022/07/12 09:12:37;;;;;;;;;6.00;6.00;;;;;25.88;42.70;101850.16;4917988;28;47034;-56
2022/07/12 09:15:15;;;;;;;;;7.25;7.25;;;;;25.88;42.86;101844.84;4917570;28;45347;-57
2022/07/12 09:17:46;;;;;;;;;6.25;6.25;;;;;25.89;42.21;101846.56;4917843;28;45245;-57
2022/07/12 09:20:13;;;;;;;;;8.50;5.75;;;;;25.90;42.32;101847.44;4917754;28;45395;-45
2022/07/12 09:22:50;;;;;;;;;7.25;5.75;;;;;25.91;42.42;101852.63;4917686;28;46217;-55
2022/07/12 09:25:18;;;;;;;;;6.50;5.00;;;;;25.92;41.99;101856.13;4917483;28;45784;-48
2022/07/12 09:27:57;;;;;;;;;6.50;5.75;;;;;25.93;42.19;101856.06;4917539;28;45512;-50
2022/07/12 09:30:24;;;;;;;;;9.50;6.00;;;;;25.92;42.25;101857.00;4918185;28;45258;-50
2022/07/12 09:38:20;;;;;;;;;5.25;5.25;;;;;25.96;41.96;101857.66;4921441;28;45357;-52
2022/07/12 09:40:47;;;;;;;;;5.25;4.25;;;;;25.97;41.86;101856.72;4921013;28;45158;-48
2022/07/12 09:43:14;;;;;;;;;6.00;6.00;;;;;25.99;41.88;101861.91;4920457;28;45543;-49
2022/07/12 09:45:40;;;;;;;;;5.25;5.25;;;;;25.98;42.09;101855.75;4920687;28;45531;-51
2022/07/12 09:48:08;;;;;;;;;5.25;5.25;;;;;26.01;41.92;101862.69;4920373;28;45459;-53
2022/07/12 09:50:35;;;;;;;;;5.75;5.75;;;;;26.01;41.95;101860.03;4920836;28;45587;-45
2022/07/12 09:53:03;;;;;;;;;5.50;5.00;;;;;26.02;42.11;101859.91;4920299;28;45317;-43
2022/07/12 09:55:36;;;;;;;;;7.00;5.25;;;;;26.03;41.93;101863.44;4920604;28;45771;-51
2022/07/12 09:58:02;;;;;;;;;8.00;5.00;;;;;26.03;41.37;101863.44;4920418;28;45363;-49
2022/07/12 10:00:29;;;;;;;;;7.75;6.50;;;;;26.03;41.60;101858.97;4920829;28;45479;-48
2022/07/12 10:02:57;;;;;;;;;6.75;6.25;;;;;26.04;41.76;101871.31;4920130;28;46378;-48
2022/07/12 10:05:25;;;;;;;;;4.00;4.00;;;;;26.04;41.62;101866.00;4920528;28;45596;-47
2022/07/12 10:07:51;;;;;;;;;4.75;4.75;;;;;26.05;41.25;101869.50;4920827;28;45398;-42
2022/07/12 10:10:17;;;;;;;;;7.75;5.75;;;;;26.06;42.04;101865.91;4920366;28;45335;-51
2022/07/12 10:12:43;;;;;;;;;5.50;5.50;;;;;26.05;41.07;101864.19;4903227;28;46665;-43
2022/07/12 10:15:22;;;;;;;;;6.75;6.50;;;;;26.05;41.10;101861.53;4920198;28;45528;-45
2022/07/12 10:17:55;;;;;;;;;6.25;5.25;;;;;26.06;40.99;101865.91;4920450;28;45414;-50
2022/07/12 10:20:23;;;;;;;;;6.00;5.25;;;;;26.05;40.90;101862.38;4920829;28;45272;-42
2022/07/12 10:22:53;;;;;;;;;4.00;4.00;;;;;26.07;40.48;101859.66;4920317;28;48133;-46
2022/07/12 10:25:30;;;;;;;;;6.25;6.25;;;;;26.09;40.38;101857.72;4903029;28;45345;-44
2022/07/12 10:27:56;;;;;;;;;8.00;5.00;;;;;26.10;40.50;101854.16;4919764;28;45318;-43
2022/07/12 10:30:23;;;;;;;;;5.00;5.00;;;;;26.12;40.58;101856.72;4920613;28;45328;-52
2022/07/12 10:32:56;;;;;;;;;5.50;5.00;;;;;26.13;40.22;101859.28;4920184;28;47009;-52
2022/07/12 10:35:23;;;;;;;;;5.75;4.75;;;;;26.15;40.08;101857.38;4920197;28;45843;-48
2022/07/12 10:38:15;;;;;;;;;5.00;5.00;;;;;26.16;39.61;101855.56;4920384;28;45455;-51
2022/07/12 10:40:43;;;;;;;;;5.25;5.25;;;;;26.18;40.01;101862.47;4902969;28;45626;-53
2022/07/12 10:43:09;;;;;;;;;5.00;5.00;;;;;26.18;39.44;101864.31;4919405;28;45398;-44
2022/07/12 10:45:36;;;;;;;;;5.00;4.00;;;;;26.18;39.40;101857.16;4918983;28;45430;-48
2022/07/12 10:48:09;;;;;;;;;4.75;4.75;;;;;26.20;39.73;101855.28;4919560;28;45346;-42
2022/07/12 10:50:48;;;;;;;;;3.50;3.50;;;;;26.20;39.13;101860.59;4918751;28;45538;-48
2022/07/12 10:53:38;;;;;;;;;5.75;5.00;;;;;26.22;39.14;101857.84;4919435;28;46799;-50
2022/07/12 10:56:03;;;;;;;;;6.50;4.50;;;;;26.21;39.33;101862.28;4918239;28;46320;-44
2022/07/12 10:58:34;;;;;;;;;4.25;3.25;;;;;26.21;39.20;101864.13;4919672;28;45246;-49
2022/07/12 11:01:02;;;;;;;;;4.25;4.25;;;;;26.19;39.32;101864.19;4919593;28;45320;-46
2022/07/12 11:03:32;;;;;;;;;6.25;4.00;;;;;26.20;38.94;101854.44;4919379;28;45328;-45
2022/07/12 11:06:03;;;;;;;;;4.25;4.00;;;;;26.20;38.71;101855.28;4919313;28;45443;-44
2022/07/12 11:08:29;;;;;;;;;4.00;4.00;;;;;26.18;39.23;101851.84;4919648;28;45349;-45
2022/07/12 11:10:58;;;;;;;;;3.25;3.25;;;;;26.18;38.93;101851.00;4919574;28;45488;-43
2022/07/12 11:13:25;;;;;;;;;4.75;4.75;;;;;26.17;38.39;101850.19;4919727;28;46013;-47
2022/07/12 11:15:58;;;;;;;;;6.50;6.25;;;;;26.16;38.57;101848.47;4919586;28;45768;-47
2022/07/12 11:18:30;;;;;;;;;5.00;5.00;;;;;26.17;38.75;101849.31;4919791;28;45423;-43
2022/07/12 11:20:57;;;;;;;;;6.00;6.00;;;;;26.17;38.37;101849.31;4919338;28;45334;-44
2022/07/12 11:23:25;;;;;;;;;7.25;6.00;;;;;26.17;38.49;101844.00;4919453;28;45435;-41
2022/07/12 11:25:51;;;;;;;;;6.75;5.25;;;;;26.16;38.18;101847.59;4919413;28;45349;-45
2022/07/12 11:28:18;;;;;;;;;7.25;6.75;;;;;26.16;38.03;101839.63;4900526;28;45540;-43
2022/07/12 11:30:51;;;;;;;;;4.75;3.00;;;;;26.16;38.26;101836.97;4918270;28;45753;-44
2022/07/12 11:33:16;;;;;;;;;7.50;6.25;;;;;26.15;38.26;101838.78;4917413;28;45473;-44